createdAt,value
2022-10-25T00:02:21.367Z,3.10
2022-10-25T00:06:26.145Z,3.40
2022-10-25T00:10:29.756Z,3.53
2022-10-25T00:14:33.118Z,3.70
2022-10-25T00:18:36.404Z,2.90
2022-10-25T00:22:44.255Z,3.67
2022-10-25T00:26:47.717Z,3.70
2022-10-25T00:31:01.041Z,2.07
2022-10-25T00:35:04.735Z,2.40
2022-10-25T00:39:09.438Z,1.80
2022-10-25T00:43:12.792Z,2.00
2022-10-25T00:47:27.693Z,2.50
2022-10-25T00:51:35.916Z,2.30
2022-10-25T00:55:45.619Z,1.80
2022-10-25T00:59:49.548Z,2.73
2022-10-25T01:03:55.636Z,2.10
2022-10-25T01:07:59.020Z,2.40
2022-10-25T01:12:04.134Z,2.23
2022-10-25T01:16:19.241Z,3.00
2022-10-25T01:20:39.811Z,3.00
2022-10-25T01:25:16.953Z,2.87
2022-10-25T01:29:38.260Z,3.07
2022-10-25T01:33:49.695Z,3.00
2022-10-25T01:38:14.452Z,2.97
2022-10-25T01:42:25.375Z,2.87
2022-10-25T01:46:37.665Z,3.00
2022-10-25T01:50:44.958Z,2.97
2022-10-25T01:54:48.261Z,3.07
2022-10-25T01:59:12.636Z,3.57
2022-10-25T02:03:20.446Z,3.50
2022-10-25T02:07:30.249Z,3.53
2022-10-25T02:11:35.123Z,3.57
2022-10-25T02:15:41.645Z,3.70
2022-10-25T02:19:49.386Z,3.17
2022-10-25T02:23:55.933Z,2.67
2022-10-25T02:28:02.229Z,2.97
2022-10-25T02:32:06.650Z,3.30
2022-10-25T02:36:15.111Z,2.33
2022-10-25T02:40:20.640Z,3.70
2022-10-25T02:44:23.969Z,3.30
2022-10-25T02:48:27.321Z,3.43
2022-10-25T02:52:31.395Z,3.13
2022-10-25T02:56:36.127Z,3.23
2022-10-25T03:00:39.460Z,3.60
2022-10-25T03:04:42.797Z,3.20
2022-10-25T03:09:15.005Z,3.97
2022-10-25T03:13:19.819Z,4.47
2022-10-25T03:17:23.114Z,4.47
2022-10-25T03:21:26.847Z,3.20
2022-10-25T03:25:30.275Z,3.03
2022-10-25T03:29:34.970Z,3.17
2022-10-25T03:33:38.255Z,3.50
2022-10-25T03:37:41.587Z,2.80
2022-10-25T03:41:44.835Z,3.80
2022-10-25T03:45:49.548Z,2.90
2022-10-25T03:49:52.844Z,3.63
2022-10-25T03:53:56.173Z,4.13
2022-10-25T03:57:59.588Z,2.90
2022-10-25T04:02:04.534Z,3.30
2022-10-25T04:06:08.298Z,3.13
2022-10-25T04:10:11.686Z,3.30
2022-10-25T04:14:14.993Z,3.47
2022-10-25T04:18:21.124Z,4.57
2022-10-25T04:22:24.480Z,3.00
2022-10-25T04:26:27.836Z,3.30
2022-10-25T04:30:35.100Z,3.60
2022-10-25T04:34:42.718Z,3.20
2022-10-25T04:38:52.925Z,4.17
2022-10-25T04:42:56.264Z,4.37
2022-10-25T04:46:59.570Z,4.20
2022-10-25T04:51:04.838Z,4.00
2022-10-25T04:55:08.644Z,3.53
2022-10-25T04:59:12.060Z,3.60
2022-10-25T05:03:15.415Z,4.33
2022-10-25T05:07:20.772Z,3.60
2022-10-25T05:11:25.721Z,4.30
2022-10-25T05:15:29.174Z,5.37
2022-10-25T05:19:40.791Z,4.73
2022-10-25T05:23:45.935Z,4.47
2022-10-25T05:27:49.200Z,4.37
2022-10-25T05:31:52.485Z,4.30
2022-10-25T05:35:55.870Z,7.23
2022-10-25T05:40:00.771Z,6.80
2022-10-25T05:44:04.126Z,6.63
2022-10-25T05:48:07.639Z,5.63
2022-10-25T05:52:12.458Z,7.20
2022-10-25T05:56:18.270Z,6.37
2022-10-25T06:00:21.698Z,6.77
2022-10-25T06:04:25.065Z,6.20
2022-10-25T06:08:28.420Z,5.13
2022-10-25T06:12:33.170Z,7.10
2022-10-25T06:16:39.124Z,6.57
2022-10-25T06:20:42.510Z,7.00
2022-10-25T06:24:45.868Z,8.07
2022-10-25T06:28:53.849Z,5.90
2022-10-25T06:32:58.266Z,6.10
2022-10-25T06:37:03.714Z,6.23
2022-10-25T06:41:09.096Z,5.30
2022-10-25T06:45:13.957Z,4.00
2022-10-25T06:49:17.270Z,3.50
2022-10-25T06:53:24.331Z,3.83
2022-10-25T06:57:29.929Z,6.53
2022-10-25T07:01:51.178Z,7.93
2022-10-25T07:05:54.607Z,7.80
2022-10-25T07:09:57.976Z,8.10
2022-10-25T07:14:03.273Z,8.77
2022-10-25T07:18:08.005Z,7.17
2022-10-25T07:22:11.293Z,5.20
2022-10-25T07:26:17.510Z,3.70
2022-10-25T07:30:20.843Z,3.90
2022-10-25T07:34:25.519Z,3.87
2022-10-25T07:38:29.426Z,4.30
2022-10-25T07:42:33.934Z,4.10
2022-10-25T07:46:37.493Z,6.20
2022-10-25T07:50:42.507Z,5.30
2022-10-25T07:54:46.084Z,5.77
2022-10-25T07:58:50.409Z,4.87
2022-10-25T08:02:54.580Z,3.87
2022-10-25T08:07:01.598Z,3.33
2022-10-25T08:11:08.221Z,2.40
2022-10-25T08:15:12.280Z,2.97
2022-10-25T08:19:16.185Z,3.40
2022-10-25T08:23:21.391Z,2.97
2022-10-25T08:27:24.743Z,2.60
2022-10-25T08:31:28.113Z,2.50
2022-10-25T08:35:43.650Z,2.80
2022-10-25T08:39:52.151Z,2.07
2022-10-25T08:44:16.272Z,1.93
2022-10-25T08:48:24.718Z,1.67
2022-10-25T08:52:33.936Z,2.00
2022-10-25T08:56:51.232Z,1.50
2022-10-25T09:01:04.932Z,1.60
2022-10-25T09:05:20.309Z,1.73
2022-10-25T09:22:48.223Z,2.07
2022-10-25T09:27:00.934Z,1.90
2022-10-25T09:31:06.427Z,1.83
2022-10-25T09:35:16.840Z,1.63
2022-10-25T09:39:27.710Z,1.57
2022-10-25T09:43:36.608Z,1.77
2022-10-25T09:47:43.618Z,1.87
2022-10-25T09:51:57.647Z,1.30
2022-10-25T09:56:05.987Z,1.40
2022-10-25T10:00:14.713Z,1.37
2022-10-25T10:04:26.842Z,1.60
2022-10-25T10:08:33.111Z,1.30
2022-10-25T10:12:44.698Z,1.57
2022-10-25T10:16:51.246Z,1.50
2022-10-25T10:21:14.922Z,1.50
2022-10-25T10:25:20.521Z,1.50
2022-10-25T10:29:27.213Z,1.20
2022-10-25T10:33:34.415Z,1.30
2022-10-25T10:37:38.053Z,1.20
2022-10-25T10:42:00.982Z,1.00
2022-10-25T10:46:09.312Z,1.10
2022-10-25T10:50:24.452Z,1.50
2022-10-25T10:54:30.116Z,2.30
2022-10-25T10:58:35.645Z,2.00
2022-10-25T11:02:43.175Z,2.63
2022-10-25T11:06:46.735Z,2.77
2022-10-25T11:10:49.894Z,2.30
2022-10-25T11:14:54.072Z,2.70
2022-10-25T11:19:15.772Z,2.37
2022-10-25T11:23:28.062Z,2.03
2022-10-25T11:27:42.213Z,2.67
2022-10-25T11:31:57.707Z,2.17
2022-10-25T11:36:19.354Z,2.33
2022-10-25T11:40:33.952Z,2.90
2022-10-25T11:44:56.512Z,2.13
2022-10-25T11:49:16.302Z,1.93
2022-10-25T11:53:37.381Z,2.53
2022-10-25T11:57:52.633Z,2.03
2022-10-25T12:02:12.900Z,1.53
2022-10-25T12:06:25.554Z,2.00
2022-10-25T12:10:37.305Z,1.53
2022-10-25T12:14:45.245Z,1.30
2022-10-25T12:18:51.270Z,1.60
2022-10-25T12:22:58.762Z,1.40
2022-10-25T12:27:05.494Z,1.40
2022-10-25T12:31:24.791Z,1.20
2022-10-25T12:35:32.639Z,1.17
2022-10-25T12:39:41.049Z,1.40
2022-10-25T12:43:59.493Z,1.30
2022-10-25T12:48:17.915Z,1.53
2022-10-25T12:52:33.246Z,1.70
2022-10-25T12:56:50.436Z,1.03
2022-10-25T13:01:17.841Z,0.80
2022-10-25T13:06:01.581Z,0.90
2022-10-25T13:10:08.035Z,1.13
2022-10-25T13:14:23.538Z,1.20
2022-10-25T13:18:39.397Z,1.47
2022-10-25T13:22:43.858Z,1.50
2022-10-25T13:27:18.926Z,0.80
2022-10-25T13:31:48.938Z,0.93
2022-10-25T13:36:04.992Z,0.90
2022-10-25T13:40:20.467Z,1.37
2022-10-25T13:44:27.720Z,1.00
2022-10-25T13:48:42.607Z,1.33
2022-10-25T13:52:58.947Z,1.63
2022-10-25T13:57:05.290Z,1.53
2022-10-25T14:01:58.541Z,0.60
2022-10-25T14:06:27.337Z,0.70
2022-10-25T14:10:36.420Z,1.03
2022-10-25T14:14:58.313Z,1.10
2022-10-25T14:19:07.923Z,1.10
2022-10-25T14:23:20.613Z,0.90
2022-10-25T14:27:35.234Z,0.70
2022-10-25T14:31:38.663Z,0.83
2022-10-25T14:35:48.950Z,0.90
2022-10-25T14:39:55.767Z,0.90
2022-10-25T14:44:01.148Z,1.17
2022-10-25T14:48:11.049Z,0.80
2022-10-25T14:52:14.358Z,1.10
2022-10-25T14:56:22.627Z,1.00
2022-10-25T15:00:27.615Z,1.00
2022-10-25T15:04:33.602Z,1.13
2022-10-25T15:08:40.991Z,1.30
2022-10-25T15:12:52.774Z,1.33
2022-10-25T15:17:16.422Z,1.23
2022-10-25T15:21:20.243Z,0.90
2022-10-25T15:25:31.193Z,1.80
2022-10-25T15:33:59.727Z,1.07
2022-10-25T15:38:03.029Z,1.60
2022-10-25T15:42:07.117Z,1.87
2022-10-25T15:46:22.403Z,1.60
2022-10-25T15:50:27.775Z,1.00
2022-10-25T15:54:31.126Z,1.50
2022-10-25T15:58:36.502Z,1.60
2022-10-25T16:02:39.960Z,1.27
2022-10-25T16:06:47.817Z,1.43
2022-10-25T16:10:51.179Z,1.30
2022-10-25T16:14:59.598Z,2.00
2022-10-25T16:19:03.727Z,1.90
2022-10-25T16:23:08.468Z,1.53
2022-10-25T16:27:18.084Z,1.83
2022-10-25T16:31:21.674Z,2.00
2022-10-25T16:35:26.491Z,2.30
2022-10-25T16:39:31.287Z,2.47
2022-10-25T16:43:35.043Z,2.57
2022-10-25T16:47:58.623Z,2.80
2022-10-25T16:52:02.612Z,2.20
2022-10-25T16:56:11.472Z,2.90
2022-10-25T17:00:18.711Z,3.10
2022-10-25T17:04:24.516Z,2.37
2022-10-25T17:08:28.908Z,2.20
2022-10-25T17:12:33.477Z,2.10
2022-10-25T17:16:37.168Z,1.80
2022-10-25T17:20:42.365Z,2.10
2022-10-25T17:24:48.742Z,3.10
2022-10-25T17:28:54.813Z,2.93
2022-10-25T17:33:00.367Z,2.63
2022-10-25T17:37:04.901Z,3.90
2022-10-25T17:41:19.655Z,3.70
2022-10-25T17:45:24.773Z,3.77
2022-10-25T17:49:29.355Z,4.13
2022-10-25T17:53:33.757Z,4.50
2022-10-25T17:57:47.281Z,4.10
2022-10-25T18:01:52.713Z,4.43
2022-10-25T18:06:01.372Z,5.00
2022-10-25T18:10:06.919Z,5.30
2022-10-25T18:14:11.966Z,5.73
2022-10-25T18:18:17.391Z,4.40
2022-10-25T18:22:21.931Z,4.80
2022-10-25T18:26:28.024Z,5.13
2022-10-25T18:30:41.601Z,6.17
2022-10-25T18:34:48.113Z,5.93
2022-10-25T18:38:55.108Z,6.57
2022-10-25T18:42:59.717Z,4.40
2022-10-25T18:47:05.318Z,5.20
2022-10-25T18:51:38.659Z,4.80
2022-10-25T18:55:50.268Z,4.77
2022-10-25T19:00:02.180Z,4.20
2022-10-25T19:04:11.475Z,4.77
2022-10-25T19:08:18.859Z,5.50
2022-10-25T19:12:26.092Z,3.63
2022-10-25T19:16:44.061Z,4.13
2022-10-25T19:20:49.630Z,4.77
2022-10-25T19:29:05.924Z,7.20
2022-10-25T19:33:10.954Z,8.27
2022-10-25T19:37:16.333Z,6.73
2022-10-25T19:41:28.470Z,7.47
2022-10-25T19:45:34.689Z,8.53
2022-10-25T19:49:40.378Z,6.90
2022-10-25T19:53:48.999Z,7.60
2022-10-25T19:57:59.002Z,8.37
2022-10-25T20:02:07.051Z,8.53
2022-10-25T20:06:13.597Z,7.93
2022-10-25T20:10:17.557Z,7.53
2022-10-25T20:14:24.324Z,7.10
2022-10-25T20:18:32.256Z,5.93
2022-10-25T20:22:56.271Z,5.20
2022-10-25T20:27:02.744Z,5.17
2022-10-25T20:31:09.719Z,5.30
2022-10-25T20:35:16.025Z,3.80
2022-10-25T20:39:20.200Z,5.20
2022-10-25T20:43:24.640Z,5.60
2022-10-25T20:47:29.540Z,5.63
2022-10-25T20:51:34.098Z,5.10
2022-10-25T20:55:37.569Z,5.20
2022-10-25T20:59:41.131Z,4.73
2022-10-25T21:03:45.899Z,4.70
2022-10-25T21:07:49.452Z,4.73
2022-10-25T21:11:56.219Z,4.63
2022-10-25T21:15:59.594Z,4.90
2022-10-25T21:20:04.435Z,5.63
2022-10-25T21:24:08.221Z,5.73
2022-10-25T21:28:11.502Z,5.27
2022-10-25T21:32:14.805Z,5.53
2022-10-25T21:36:21.155Z,5.50
2022-10-25T21:40:26.574Z,5.80
2022-10-25T21:44:29.819Z,4.87
2022-10-25T21:48:33.336Z,5.23
2022-10-25T21:52:38.231Z,4.67
2022-10-25T21:56:41.646Z,4.30
2022-10-25T22:00:45.043Z,4.50
2022-10-25T22:04:48.382Z,4.00
2022-10-25T22:08:54.971Z,3.83
2022-10-25T22:12:59.325Z,4.57
2022-10-25T22:17:02.548Z,4.47
2022-10-25T22:21:07.825Z,4.17
2022-10-25T22:25:12.757Z,3.97
2022-10-25T22:29:16.163Z,4.13
2022-10-25T22:33:59.727Z,3.80
2022-10-25T22:38:03.017Z,3.80
2022-10-25T22:42:12.439Z,5.13
2022-10-25T22:46:17.430Z,4.30
2022-10-25T22:50:21.852Z,4.67
2022-10-25T22:54:25.146Z,3.83
2022-10-25T22:58:32.525Z,4.40
2022-10-25T23:02:35.750Z,3.70
2022-10-25T23:06:45.847Z,3.57
2022-10-25T23:10:49.531Z,4.60
2022-10-25T23:14:54.255Z,3.97
2022-10-25T23:18:58.080Z,4.80
2022-10-25T23:23:01.295Z,3.60
2022-10-25T23:27:05.717Z,3.83
2022-10-25T23:31:12.296Z,4.53
2022-10-25T23:35:15.869Z,4.30
2022-10-25T23:39:19.084Z,4.47
2022-10-25T23:43:22.354Z,4.10
2022-10-25T23:47:27.061Z,4.43
2022-10-25T23:51:30.316Z,4.77
2022-10-25T23:55:33.697Z,4.03
2022-10-25T23:59:36.937Z,4.30
